createdAt,value
2018-03-15T00:01:35.730Z,6.60
2018-03-15T00:06:37.103Z,8.07
2018-03-15T00:11:38.519Z,7.50
2018-03-15T00:16:39.912Z,7.20
2018-03-15T00:21:41.292Z,7.40
2018-03-15T00:26:42.655Z,6.50
2018-03-15T00:31:43.987Z,6.87
2018-03-15T00:36:45.350Z,7.07
2018-03-15T00:41:46.702Z,7.63
2018-03-15T00:46:48.036Z,7.80
2018-03-15T00:51:49.457Z,8.90
2018-03-15T00:56:50.842Z,8.37
2018-03-15T01:01:52.262Z,7.50
2018-03-15T01:06:53.628Z,7.60
2018-03-15T01:11:55.093Z,7.37
2018-03-15T01:16:56.485Z,7.73
2018-03-15T01:21:57.917Z,8.40
2018-03-15T01:26:59.279Z,8.30
2018-03-15T01:32:00.662Z,8.63
2018-03-15T01:37:02.017Z,9.00
2018-03-15T01:42:03.427Z,8.40
2018-03-15T01:47:04.829Z,8.47
2018-03-15T01:52:06.202Z,8.67
2018-03-15T01:57:07.595Z,7.77
2018-03-15T02:02:08.953Z,8.60
2018-03-15T02:07:10.325Z,8.80
2018-03-15T02:12:11.664Z,8.93
2018-03-15T02:17:13.086Z,8.13
2018-03-15T02:22:14.444Z,8.07
2018-03-15T02:27:15.882Z,8.50
2018-03-15T02:32:18.525Z,9.40
2018-03-15T02:37:19.916Z,8.50
2018-03-15T02:42:21.250Z,8.50
2018-03-15T02:47:22.620Z,9.00
2018-03-15T02:52:24.042Z,10.10
2018-03-15T02:57:25.390Z,10.13
2018-03-15T03:02:26.732Z,9.93
2018-03-15T03:07:28.117Z,11.90
2018-03-15T03:12:29.487Z,11.40
2018-03-15T03:17:30.874Z,11.40
2018-03-15T03:22:32.243Z,12.37
2018-03-15T03:27:33.639Z,12.30
2018-03-15T03:32:35.086Z,12.67
2018-03-15T03:37:36.495Z,12.70
2018-03-15T03:42:37.926Z,11.97
2018-03-15T03:47:39.368Z,14.17
2018-03-15T03:52:40.718Z,14.13
2018-03-15T03:57:42.075Z,13.50
2018-03-15T04:02:44.178Z,13.87
2018-03-15T04:07:46.283Z,14.67
2018-03-15T04:12:47.644Z,15.07
2018-03-15T04:17:49.009Z,16.53
2018-03-15T04:22:50.354Z,18.67
2018-03-15T04:27:52.481Z,19.47
2018-03-15T04:32:54.148Z,20.07
2018-03-15T04:37:55.492Z,24.97
2018-03-15T04:42:56.843Z,22.87
2018-03-15T04:47:58.916Z,24.47
2018-03-15T04:53:00.268Z,25.80
2018-03-15T04:58:01.620Z,28.00
2018-03-15T05:03:03.715Z,25.60
2018-03-15T05:08:05.176Z,23.60
2018-03-15T05:13:07.482Z,24.60
2018-03-15T05:18:08.948Z,23.30
2018-03-15T05:23:10.308Z,23.90
2018-03-15T05:28:11.660Z,23.63
2018-03-15T05:33:13.053Z,24.23
2018-03-15T05:38:14.382Z,24.30
2018-03-15T05:43:15.717Z,25.50
2018-03-15T05:48:17.099Z,24.63
2018-03-15T05:53:18.426Z,25.10
2018-03-15T05:58:19.763Z,24.30
2018-03-15T06:03:21.096Z,21.47
2018-03-15T06:08:22.428Z,21.80
2018-03-15T06:13:23.804Z,21.60
2018-03-15T06:18:25.160Z,19.83
2018-03-15T06:23:26.492Z,17.33
2018-03-15T06:28:28.621Z,17.20
2018-03-15T06:33:29.972Z,15.83
2018-03-15T06:38:31.374Z,16.73
2018-03-15T06:43:32.723Z,17.07
2018-03-15T06:48:34.104Z,14.57
2018-03-15T06:53:35.449Z,18.23
2018-03-15T06:58:37.202Z,18.57
2018-03-15T07:03:38.552Z,18.40
2018-03-15T07:08:39.938Z,21.77
2018-03-15T07:13:42.025Z,19.67
2018-03-15T07:18:43.391Z,21.17
2018-03-15T07:23:44.752Z,19.10
2018-03-15T07:28:46.090Z,17.90
2018-03-15T07:33:47.426Z,17.93
2018-03-15T07:38:48.761Z,18.50
2018-03-15T07:43:50.088Z,18.33
2018-03-15T07:48:51.424Z,18.20
2018-03-15T07:53:52.760Z,17.90
2018-03-15T07:58:54.833Z,16.60
2018-03-15T08:03:56.207Z,15.93
2018-03-15T08:08:57.585Z,15.47
2018-03-15T08:13:58.948Z,12.03
2018-03-15T08:19:00.280Z,14.93
2018-03-15T08:24:01.627Z,15.17
2018-03-15T08:29:02.999Z,14.33
2018-03-15T08:34:05.096Z,15.33
2018-03-15T08:39:07.324Z,14.37
2018-03-15T08:44:09.409Z,15.00
2018-03-15T08:49:10.803Z,12.57
2018-03-15T08:54:12.160Z,14.30
2018-03-15T08:59:13.558Z,14.00
2018-03-15T09:04:14.949Z,11.90
2018-03-15T09:09:16.268Z,14.33
2018-03-15T09:14:18.371Z,14.30
2018-03-15T09:19:19.711Z,14.63
2018-03-15T09:24:21.056Z,16.63
2018-03-15T09:29:23.140Z,15.33
2018-03-15T09:34:24.545Z,14.10
2018-03-15T09:39:25.845Z,14.90
2018-03-15T09:44:27.932Z,13.97
2018-03-15T09:49:30.019Z,14.20
2018-03-15T09:54:31.354Z,14.57
2018-03-15T09:59:32.732Z,15.30
2018-03-15T10:04:34.068Z,13.53
2018-03-15T10:09:35.456Z,14.37
2018-03-15T10:14:36.866Z,14.30
2018-03-15T10:19:38.220Z,13.60
2018-03-15T10:24:39.621Z,12.53
2018-03-15T10:29:40.981Z,13.60
2018-03-15T10:34:42.451Z,13.73
2018-03-15T10:39:43.794Z,14.40
2018-03-15T10:44:45.160Z,12.63
2018-03-15T10:49:46.572Z,14.30
2018-03-15T10:54:47.883Z,13.57
2018-03-15T10:59:49.304Z,14.37
2018-03-15T11:04:56.623Z,13.00
2018-03-15T11:09:57.964Z,13.93
2018-03-15T11:14:59.283Z,14.67
2018-03-15T11:20:00.597Z,13.23
2018-03-15T11:25:01.964Z,15.07
2018-03-15T11:30:03.347Z,14.20
2018-03-15T11:35:04.671Z,14.10
2018-03-15T11:40:06.763Z,14.43
2018-03-15T11:45:08.079Z,13.67
2018-03-15T11:50:10.139Z,15.23
2018-03-15T11:55:11.472Z,15.47
2018-03-15T12:00:13.555Z,17.20
2018-03-15T12:05:14.880Z,18.07
2018-03-15T12:10:16.935Z,18.80
2018-03-15T12:15:18.256Z,16.90
2018-03-15T12:20:20.381Z,17.90
2018-03-15T12:25:22.427Z,17.67
2018-03-15T12:30:23.757Z,17.53
2018-03-15T12:35:25.072Z,18.30
2018-03-15T12:40:27.140Z,17.90
2018-03-15T12:45:28.462Z,17.00
2018-03-15T12:50:30.539Z,17.53
2018-03-15T12:55:31.808Z,17.47
2018-03-15T13:00:33.108Z,17.93
2018-03-15T13:05:34.400Z,17.47
2018-03-15T13:10:35.708Z,16.87
2018-03-15T13:15:37.004Z,18.53
2018-03-15T13:20:39.061Z,18.07
2018-03-15T13:25:40.358Z,17.90
2018-03-15T13:30:41.678Z,18.40
2018-03-15T13:35:42.995Z,17.90
2018-03-15T13:40:44.302Z,20.10
2018-03-15T13:45:45.608Z,18.63
2018-03-15T13:50:46.919Z,18.57
2018-03-15T13:55:48.208Z,18.37
2018-03-15T14:00:49.516Z,18.63
2018-03-15T14:05:51.591Z,18.00
2018-03-15T14:10:52.890Z,20.37
2018-03-15T14:15:54.191Z,20.33
2018-03-15T14:20:55.488Z,19.50
2018-03-15T14:25:56.792Z,20.47
2018-03-15T14:30:58.823Z,19.80
2018-03-15T14:36:00.140Z,21.83
2018-03-15T14:41:01.467Z,21.87
2018-03-15T14:46:03.524Z,21.27
2018-03-15T14:51:04.860Z,21.43
2018-03-15T14:56:06.892Z,20.97
2018-03-15T15:01:08.192Z,21.40
2018-03-15T15:06:09.543Z,20.70
2018-03-15T15:11:11.619Z,21.27
2018-03-15T15:16:13.025Z,20.30
2018-03-15T15:21:14.286Z,19.97
2018-03-15T15:26:15.620Z,18.10
2018-03-15T15:31:17.686Z,20.60
2018-03-15T15:36:19.001Z,20.50
2018-03-15T15:41:20.319Z,20.27
2018-03-15T15:46:22.356Z,20.33
2018-03-15T15:51:23.675Z,19.57
2018-03-15T15:56:25.084Z,20.23
2018-03-15T16:01:27.480Z,20.00
2018-03-15T16:06:28.790Z,20.73
2018-03-15T16:11:30.135Z,19.50
2018-03-15T16:16:31.472Z,20.00
2018-03-15T16:21:32.933Z,19.00
2018-03-15T16:26:34.236Z,18.70
2018-03-15T16:31:35.532Z,18.23
2018-03-15T16:36:36.907Z,19.80
2018-03-15T16:41:38.224Z,17.67
2018-03-15T16:46:39.591Z,18.93
2018-03-15T16:51:40.952Z,17.47
2018-03-15T16:56:42.327Z,16.40
2018-03-15T17:01:44.372Z,16.97
2018-03-15T17:06:45.668Z,18.03
2018-03-15T17:11:46.973Z,17.80
2018-03-15T17:16:48.284Z,17.97
2018-03-15T17:21:50.322Z,19.40
2018-03-15T17:26:51.628Z,17.40
2018-03-15T17:31:52.946Z,16.50
2018-03-15T17:36:54.250Z,18.50
2018-03-15T17:41:55.540Z,18.50
2018-03-15T17:46:56.827Z,17.00
2018-03-15T17:51:58.931Z,16.80
2018-03-15T17:57:00.228Z,17.63
2018-03-15T18:02:02.303Z,19.03
2018-03-15T18:07:03.628Z,21.83
2018-03-15T18:12:05.663Z,21.03
2018-03-15T18:17:07.840Z,20.47
2018-03-15T18:22:09.955Z,30.30
2018-03-15T18:27:12.009Z,19.77
2018-03-15T18:32:13.373Z,20.30
2018-03-15T18:37:14.724Z,22.90
2018-03-15T18:42:16.024Z,23.07
2018-03-15T18:47:18.158Z,23.40
2018-03-15T18:52:19.473Z,23.07
2018-03-15T18:57:21.814Z,23.80
2018-03-15T19:02:23.195Z,22.17
2018-03-15T19:07:24.516Z,18.47
2018-03-15T19:12:27.561Z,19.80
2018-03-15T19:17:28.904Z,19.77
2018-03-15T19:22:30.238Z,16.90
2018-03-15T19:27:31.540Z,18.33
2018-03-15T19:32:32.831Z,17.60
2018-03-15T19:37:34.144Z,15.97
2018-03-15T19:42:35.511Z,17.70
2018-03-15T19:47:36.849Z,16.27
2018-03-15T19:52:38.165Z,17.23
2018-03-15T19:57:40.220Z,16.67
2018-03-15T20:02:41.540Z,15.23
2018-03-15T20:07:42.967Z,18.10
2018-03-15T20:12:44.337Z,17.77
2018-03-15T20:17:45.593Z,17.10
2018-03-15T20:28:36.367Z,18.60
2018-03-15T20:33:43.835Z,19.63
2018-03-15T20:38:45.324Z,20.73
2018-03-15T20:43:46.630Z,20.00
2018-03-15T20:48:54.001Z,20.47
2018-03-15T20:53:55.543Z,20.60
2018-03-15T20:58:56.847Z,18.53
2018-03-15T21:03:58.341Z,19.23
2018-03-15T21:09:01.067Z,22.47
2018-03-15T21:14:03.416Z,18.67
2018-03-15T21:19:04.961Z,21.40
2018-03-15T21:24:07.456Z,21.73
2018-03-15T21:29:09.567Z,21.30
2018-03-15T21:34:11.911Z,24.20
2018-03-15T21:39:13.671Z,22.40
2018-03-15T21:44:15.304Z,24.13
2018-03-15T21:49:17.183Z,23.03
2018-03-15T21:54:18.516Z,25.63
2018-03-15T21:59:20.827Z,25.30
2018-03-15T22:04:22.933Z,26.00
2018-03-15T22:09:24.576Z,27.67
2018-03-15T22:14:26.043Z,26.07
2018-03-15T22:19:27.465Z,24.33
2018-03-15T22:24:29.243Z,28.33
2018-03-15T22:29:31.384Z,26.90
2018-03-15T22:34:32.753Z,28.03
2018-03-15T22:39:34.740Z,23.70
2018-03-15T22:44:37.016Z,27.43
2018-03-15T22:49:38.511Z,31.10
2018-03-15T22:54:40.504Z,29.70
2018-03-15T22:59:42.721Z,31.27
2018-03-15T23:04:44.398Z,30.97
2018-03-15T23:09:45.917Z,31.87
2018-03-15T23:14:48.008Z,30.63
2018-03-15T23:19:49.351Z,29.33
2018-03-15T23:24:50.719Z,31.67
2018-03-15T23:29:52.748Z,29.90
2018-03-15T23:34:54.068Z,33.00
2018-03-15T23:39:55.369Z,28.40
2018-03-15T23:44:56.668Z,29.17
2018-03-15T23:49:57.964Z,30.97
2018-03-15T23:54:59.308Z,29.50
